createdAt,value
2018-07-30T00:00:33.556Z,84.82
2018-07-30T00:05:20.790Z,84.19
2018-07-30T00:26:35.326Z,85.87
2018-07-30T00:31:39.243Z,85.40
2018-07-30T00:42:20.815Z,85.40
2018-07-30T00:47:28.151Z,84.68
2018-07-30T00:52:43.410Z,83.70
2018-07-30T01:03:13.031Z,84.31
2018-07-30T01:08:01.349Z,84.26
2018-07-30T01:29:54.880Z,84.67
2018-07-30T01:34:45.685Z,84.52
2018-07-30T01:39:37.454Z,89.57
2018-07-30T01:44:21.309Z,90.70
2018-07-30T02:05:47.547Z,87.84
2018-07-30T02:11:02.020Z,87.47
2018-07-30T02:18:48.221Z,87.52
2018-07-30T02:29:27.223Z,87.48
2018-07-30T02:39:45.389Z,88.67
2018-07-30T02:44:28.936Z,87.91
2018-07-30T02:49:12.527Z,85.06
2018-07-30T02:53:59.648Z,85.42
2018-07-30T02:58:43.113Z,85.63
2018-07-30T03:03:27.884Z,89.71
2018-07-30T03:08:11.515Z,87.21
2018-07-30T03:12:55.358Z,85.09
2018-07-30T03:17:39.058Z,86.65
2018-07-30T03:22:23.416Z,87.47
2018-07-30T03:27:07.022Z,85.99
2018-07-30T03:31:50.663Z,87.52
2018-07-30T03:36:34.022Z,88.63
2018-07-30T03:41:17.731Z,88.68
2018-07-30T03:46:01.313Z,86.68
2018-07-30T03:50:45.023Z,86.87
2018-07-30T03:55:29.560Z,88.46
2018-07-30T04:00:14.101Z,88.38
2018-07-30T04:04:57.527Z,88.42
2018-07-30T04:09:41.185Z,91.28
2018-07-30T04:14:24.797Z,92.94
2018-07-30T04:19:08.366Z,90.17
2018-07-30T04:23:54.958Z,90.48
2018-07-30T04:28:38.484Z,90.20
2018-07-30T04:33:22.165Z,90.99
2018-07-30T04:38:06.100Z,91.44
2018-07-30T04:42:49.733Z,90.67
2018-07-30T04:47:33.236Z,91.00
2018-07-30T04:52:16.765Z,92.86
2018-07-30T04:57:00.461Z,90.99
2018-07-30T05:01:44.075Z,92.18
2018-07-30T05:06:27.571Z,91.68
2018-07-30T05:11:14.338Z,91.51
2018-07-30T05:16:00.109Z,92.99
2018-07-30T05:20:45.062Z,91.38
2018-07-30T05:25:30.827Z,91.30
2018-07-30T05:30:14.513Z,91.76
2018-07-30T05:34:57.993Z,90.09
2018-07-30T05:39:41.437Z,91.33
2018-07-30T05:44:25.049Z,91.45
2018-07-30T05:49:08.549Z,91.28
2018-07-30T05:53:52.036Z,91.57
2018-07-30T05:58:35.690Z,91.03
2018-07-30T06:03:20.523Z,91.39
2018-07-30T06:08:04.157Z,91.51
2018-07-30T06:12:47.790Z,90.86
2018-07-30T06:17:31.385Z,91.07
2018-07-30T06:22:15.819Z,91.35
2018-07-30T06:26:59.277Z,91.29
2018-07-30T06:31:42.941Z,91.08
2018-07-30T06:36:26.272Z,90.55
2018-07-30T06:41:11.038Z,89.71
2018-07-30T06:45:54.521Z,90.43
2018-07-30T06:50:41.724Z,90.89
2018-07-30T06:55:28.765Z,90.33
2018-07-30T07:00:32.288Z,90.16
2018-07-30T07:05:19.397Z,90.87
2018-07-30T07:10:08.071Z,91.15
2018-07-30T07:14:51.736Z,90.15
2018-07-30T07:19:36.465Z,86.58
2018-07-30T07:24:20.509Z,87.68
2018-07-30T07:29:04.051Z,87.42
2018-07-30T07:33:47.471Z,87.00
2018-07-30T07:38:31.058Z,88.08
2018-07-30T07:43:14.840Z,87.35
2018-07-30T07:47:58.287Z,87.65
2018-07-30T07:52:42.814Z,86.74
2018-07-30T07:57:27.278Z,87.85
2018-07-30T08:02:14.036Z,86.76
2018-07-30T08:06:57.703Z,86.02
2018-07-30T08:17:50.161Z,86.34
2018-07-30T08:22:52.173Z,85.91
2018-07-30T08:27:35.834Z,85.43
2018-07-30T08:32:19.581Z,84.54
2018-07-30T08:37:03.030Z,83.09
2018-07-30T08:41:46.489Z,83.57
2018-07-30T08:46:30.036Z,85.46
2018-07-30T08:51:13.718Z,86.56
2018-07-30T08:55:57.313Z,87.93
2018-07-30T09:00:42.109Z,85.11
2018-07-30T09:05:25.687Z,83.94
2018-07-30T09:10:39.532Z,83.36
2018-07-30T09:15:34.107Z,79.80
2018-07-30T09:20:18.618Z,80.43
2018-07-30T09:25:02.255Z,82.29
2018-07-30T09:29:45.967Z,80.26
2018-07-30T09:34:29.389Z,84.24
2018-07-30T09:39:13.028Z,82.83
2018-07-30T09:43:56.583Z,81.81
2018-07-30T09:48:40.185Z,83.26
2018-07-30T09:53:23.883Z,82.10
2018-07-30T09:58:07.494Z,82.31
2018-07-30T10:02:51.291Z,81.59
2018-07-30T10:07:34.861Z,83.30
2018-07-30T10:12:19.179Z,83.91
2018-07-30T10:17:03.845Z,84.33
2018-07-30T10:21:49.412Z,85.94
2018-07-30T10:26:34.092Z,86.68
2018-07-30T10:31:18.813Z,86.48
2018-07-30T10:36:03.190Z,85.01
2018-07-30T10:40:49.681Z,85.77
2018-07-30T10:45:34.227Z,88.44
2018-07-30T10:50:18.782Z,92.83
2018-07-30T10:55:02.192Z,93.80
2018-07-30T10:59:45.755Z,94.98
2018-07-30T11:04:29.260Z,92.71
2018-07-30T11:09:13.804Z,95.17
2018-07-30T11:13:56.484Z,93.20
2018-07-30T11:18:41.144Z,94.20
2018-07-30T11:23:24.672Z,96.35
2018-07-30T11:28:08.222Z,97.95
2018-07-30T11:32:51.906Z,98.69
2018-07-30T11:37:35.359Z,97.32
2018-07-30T11:42:18.906Z,96.81
2018-07-30T11:47:02.546Z,98.30
2018-07-30T11:51:47.500Z,97.57
2018-07-30T11:56:31.102Z,98.16
2018-07-30T12:01:17.721Z,97.83
2018-07-30T12:06:01.188Z,96.03
2018-07-30T12:10:46.574Z,96.59
2018-07-30T12:15:30.165Z,97.57
2018-07-30T12:20:13.957Z,96.96
2018-07-30T12:24:58.358Z,97.37
2018-07-30T12:29:42.096Z,98.25
2018-07-30T12:34:25.623Z,98.62
2018-07-30T12:39:10.822Z,97.60
2018-07-30T12:43:54.953Z,98.29
2018-07-30T12:48:45.398Z,97.42
2018-07-30T12:53:28.966Z,98.28
2018-07-30T12:58:13.502Z,96.58
2018-07-30T13:02:57.187Z,97.12
2018-07-30T13:07:41.379Z,95.99
2018-07-30T13:12:30.696Z,95.33
2018-07-30T13:17:14.256Z,96.37
2018-07-30T13:21:57.799Z,96.28
2018-07-30T13:26:41.435Z,93.39
2018-07-30T13:31:25.117Z,93.57
2018-07-30T13:36:08.781Z,93.07
2018-07-30T13:40:58.182Z,94.19
2018-07-30T13:45:42.467Z,93.98
2018-07-30T13:50:26.234Z,94.01
2018-07-30T13:55:09.830Z,92.04
2018-07-30T13:59:56.555Z,92.84
2018-07-30T14:04:40.166Z,91.83
2018-07-30T14:09:24.874Z,92.07
2018-07-30T14:14:09.693Z,91.42
2018-07-30T14:18:54.292Z,90.27
2018-07-30T14:23:37.999Z,91.08
2018-07-30T14:28:26.166Z,91.84
2018-07-30T14:33:09.663Z,83.81
2018-07-30T14:37:53.360Z,87.09
2018-07-30T14:42:36.916Z,88.60
2018-07-30T14:47:20.468Z,88.02
2018-07-30T14:52:05.155Z,89.61
2018-07-30T14:56:49.682Z,89.53
2018-07-30T15:01:38.420Z,90.59
2018-07-30T15:06:22.650Z,89.29
2018-07-30T15:11:06.230Z,89.71
2018-07-30T15:15:49.657Z,90.61
2018-07-30T15:20:37.998Z,89.64
2018-07-30T15:25:21.628Z,88.67
2018-07-30T15:30:07.123Z,87.27
2018-07-30T15:34:51.223Z,86.69
2018-07-30T15:39:34.990Z,87.30
2018-07-30T15:44:18.556Z,86.48
2018-07-30T15:49:02.291Z,85.05
2018-07-30T15:53:46.023Z,85.04
2018-07-30T15:58:33.212Z,85.34
2018-07-30T16:03:16.833Z,85.65
2018-07-30T16:08:01.567Z,85.92
2018-07-30T16:12:45.242Z,85.64
2018-07-30T16:17:28.801Z,86.18
2018-07-30T16:22:13.136Z,85.89
2018-07-30T16:26:56.821Z,85.33
2018-07-30T16:31:40.504Z,84.98
2018-07-30T16:36:24.168Z,85.60
2018-07-30T16:41:10.118Z,84.92
2018-07-30T16:45:54.430Z,83.81
2018-07-30T16:50:39.439Z,83.89
2018-07-30T16:55:23.090Z,83.61
2018-07-30T17:00:11.779Z,85.52
2018-07-30T17:04:55.407Z,83.64
2018-07-30T17:09:41.041Z,83.66
2018-07-30T17:14:24.641Z,83.46
2018-07-30T17:19:09.575Z,83.50
2018-07-30T17:23:53.855Z,84.06
2018-07-30T17:28:41.506Z,85.10
2018-07-30T17:33:25.186Z,83.92
2018-07-30T17:38:10.633Z,84.54
2018-07-30T17:42:54.244Z,85.42
2018-07-30T17:47:38.880Z,84.77
2018-07-30T17:52:22.735Z,85.28
2018-07-30T17:57:06.310Z,84.75
2018-07-30T18:01:51.023Z,83.63
2018-07-30T18:06:34.626Z,85.02
2018-07-30T18:11:20.042Z,84.68
2018-07-30T18:16:03.624Z,83.88
2018-07-30T18:20:47.605Z,85.94
2018-07-30T18:25:31.153Z,85.85
2018-07-30T18:30:17.947Z,85.45
2018-07-30T18:35:01.494Z,85.61
2018-07-30T18:39:46.204Z,85.99
2018-07-30T18:44:29.746Z,85.81
2018-07-30T18:49:14.187Z,85.26
2018-07-30T18:54:01.133Z,85.02
2018-07-30T18:58:49.570Z,83.65
2018-07-30T19:03:33.637Z,85.04
2018-07-30T19:08:21.258Z,85.00
2018-07-30T19:13:04.963Z,84.17
2018-07-30T19:17:52.456Z,83.57
2018-07-30T19:27:48.509Z,82.61
2018-07-30T19:32:35.130Z,84.46
2018-07-30T19:37:18.988Z,82.90
2018-07-30T19:42:02.528Z,83.69
2018-07-30T19:46:46.529Z,82.73
2018-07-30T19:51:33.851Z,84.32
2018-07-30T19:56:17.569Z,83.86
2018-07-30T20:01:07.398Z,82.62
2018-07-30T20:05:50.917Z,83.02
2018-07-30T20:10:35.517Z,82.85
2018-07-30T20:15:19.058Z,85.74
2018-07-30T20:20:03.445Z,84.25
2018-07-30T20:24:47.042Z,82.97
2018-07-30T20:29:35.844Z,84.04
2018-07-30T20:34:19.688Z,83.27
2018-07-30T20:39:08.915Z,84.44
2018-07-30T20:43:53.671Z,84.10
2018-07-30T20:48:41.072Z,83.73
2018-07-30T20:53:24.528Z,84.39
2018-07-30T20:58:13.572Z,85.60
2018-07-30T21:02:57.111Z,84.48
2018-07-30T21:07:40.806Z,86.21
2018-07-30T21:12:24.322Z,84.21
2018-07-30T21:17:09.263Z,83.98
2018-07-30T21:21:52.758Z,84.53
2018-07-30T21:26:36.361Z,84.83
2018-07-30T21:31:23.886Z,84.54
2018-07-30T21:36:07.262Z,84.56
2018-07-30T21:40:51.065Z,83.79
2018-07-30T21:45:34.715Z,83.65
2018-07-30T21:50:19.416Z,84.27
2018-07-30T21:55:03.646Z,84.21
2018-07-30T21:59:50.454Z,84.10
2018-07-30T22:04:34.099Z,84.35
2018-07-30T22:09:20.892Z,86.32
2018-07-30T22:14:04.432Z,85.84
2018-07-30T22:18:48.090Z,86.74
2018-07-30T22:23:31.731Z,89.43
2018-07-30T22:28:16.477Z,87.23
2018-07-30T22:33:00.667Z,85.45
2018-07-30T22:37:44.559Z,85.46
2018-07-30T22:42:28.282Z,86.44
2018-07-30T22:47:12.155Z,86.15
2018-07-30T22:51:55.843Z,86.94
2018-07-30T22:56:39.355Z,84.87
2018-07-30T23:01:23.076Z,86.23
2018-07-30T23:06:06.783Z,85.76
2018-07-30T23:10:50.578Z,86.58
2018-07-30T23:15:34.275Z,87.06
2018-07-30T23:20:18.144Z,85.16
2018-07-30T23:25:01.783Z,86.16
2018-07-30T23:29:46.616Z,86.00
2018-07-30T23:34:30.192Z,88.30
2018-07-30T23:39:14.047Z,87.47
2018-07-30T23:43:58.138Z,90.54
2018-07-30T23:48:41.981Z,88.94
2018-07-30T23:53:25.258Z,89.22
2018-07-30T23:58:08.969Z,88.41
